Time;durP1;ratioP1;P1;durP2;ratioP2;P2;SDS_P1;SDS_P2;PMS_P1;PMS_P2;Temp;Humidity;BMP_temperature;BMP_pressure;BME280_temperature;BME280_humidity;BME280_pressure;Samples;Min_cycle;Max_cycle;Signal;HPM_P1;HPM_P2
2023/07/17 00:00:42;;;;;;;7.57;3.25;;;;;;;18.07;85.59;101361.97;5003260;28;20026;-69
2023/07/17 00:03:07;;;;;;;6.30;3.08;;;;;;;17.98;86.36;101355.25;5002752;28;20030;-69
2023/07/17 00:05:33;;;;;;;8.15;3.70;;;;;;;17.94;86.82;101325.16;5007355;28;20038;-69
2023/07/17 00:07:59;;;;;;;7.75;2.90;;;;;;;18.01;86.76;101335.72;4987924;28;20440;-71
2023/07/17 00:10:24;;;;;;;6.50;3.08;;;;;;;17.94;88.27;101325.16;4987456;28;20053;-69
2023/07/17 00:12:50;;;;;;;8.40;2.95;;;;;;;17.94;88.37;101313.88;4981152;28;20042;-69
2023/07/17 00:15:15;;;;;;;6.07;2.92;;;;;;;17.99;88.54;101319.34;4986867;28;20033;-69
2023/07/17 00:17:41;;;;;;;8.15;3.45;;;;;;;18.02;88.95;101324.19;5002060;28;20026;-70
2023/07/17 00:20:10;;;;;;;6.53;3.17;;;;;;;18.01;89.43;101326.03;4996779;28;20058;-69
2023/07/17 00:22:35;;;;;;;6.47;2.75;;;;;;;18.06;89.42;101320.19;4984653;28;20045;-69
2023/07/17 00:25:01;;;;;;;4.95;2.65;;;;;;;18.05;88.84;101326.44;5002773;28;20399;-69
2023/07/17 00:27:26;;;;;;;7.57;2.58;;;;;;;18.04;88.47;101328.25;4999530;28;20034;-69
2023/07/17 00:29:52;;;;;;;4.50;2.97;;;;;;;18.03;88.79;101329.25;4970109;28;20030;-70
2023/07/17 00:32:18;;;;;;;6.10;2.90;;;;;;;17.97;89.04;101327.41;4981927;28;20040;-69
2023/07/17 00:34:44;;;;;;;6.20;2.60;;;;;;;18.02;88.66;101329.44;5000953;28;20038;-69
2023/07/17 00:37:09;;;;;;;11.25;2.67;;;;;;;17.96;88.33;101333.66;4988961;28;20111;-69
2023/07/17 00:39:35;;;;;;;6.45;2.40;;;;;;;17.89;88.29;101328.38;4987198;28;20037;-70
2023/07/17 00:42:01;;;;;;;7.07;3.22;;;;;;;17.83;88.12;101331.72;4989150;28;20037;-69
2023/07/17 00:44:27;;;;;;;7.30;3.15;;;;;;;17.84;88.23;101341.25;4989266;28;20038;-69
2023/07/17 00:46:54;;;;;;;6.00;2.75;;;;;;;17.81;88.49;101327.66;4999399;28;20045;-69
2023/07/17 00:49:25;;;;;;;7.72;2.78;;;;;;;17.77;88.51;101342.97;4967943;28;20038;-69
2023/07/17 00:51:53;;;;;;;4.90;2.40;;;;;;;17.76;88.68;101346.59;4983665;28;20133;-70
2023/07/17 00:54:19;;;;;;;4.65;2.20;;;;;;;17.75;88.82;101357.28;4972448;28;20503;-69
2023/07/17 00:56:46;;;;;;;4.95;2.40;;;;;;;17.77;88.92;101360.53;4987634;28;20432;-69
2023/07/17 00:59:15;;;;;;;5.13;2.22;;;;;;;17.83;87.93;101371.06;4988315;28;20281;-70
2023/07/17 01:01:41;;;;;;;5.68;2.67;;;;;;;17.69;86.90;101385.09;4989310;28;20048;-69
2023/07/17 01:04:08;;;;;;;6.78;2.75;;;;;;;17.57;85.45;101395.25;4988558;28;20038;-71
2023/07/17 01:06:39;;;;;;;5.93;2.28;;;;;;;17.47;85.85;101389.50;5001067;28;20048;-71
2023/07/17 01:09:08;;;;;;;7.57;2.63;;;;;;;17.44;86.34;101397.75;5004637;28;20104;-70
2023/07/17 01:11:34;;;;;;;5.28;3.08;;;;;;;17.19;88.75;101389.44;4989036;28;20151;-71
2023/07/17 01:14:00;;;;;;;8.88;2.50;;;;;;;17.05;91.21;101373.56;4988667;28;20025;-71
2023/07/17 01:16:25;;;;;;;9.32;2.55;;;;;;;16.97;92.35;101372.84;4989746;28;20049;-71
2023/07/17 01:18:51;;;;;;;5.40;2.40;;;;;;;16.90;93.62;101355.25;4995331;28;20029;-71
2023/07/17 01:21:25;;;;;;;5.93;2.40;;;;;;;16.90;94.61;101357.88;4981044;28;20038;-71
2023/07/17 01:23:52;;;;;;;7.28;2.15;;;;;;;16.85;94.83;101352.38;4979367;28;20609;-70
2023/07/17 01:26:18;;;;;;;4.30;2.25;;;;;;;16.87;95.37;101349.56;5003106;28;20088;-71
2023/07/17 01:28:45;;;;;;;4.50;2.17;;;;;;;16.90;95.87;101344.78;5004567;28;20037;-70
2023/07/17 01:31:11;;;;;;;6.47;2.42;;;;;;;16.92;95.93;101349.84;4992720;28;20038;-71
2023/07/17 01:33:37;;;;;;;6.00;2.38;;;;;;;16.88;95.63;101352.03;4987476;28;20045;-70
2023/07/17 01:36:04;;;;;;;4.35;1.80;;;;;;;16.85;96.17;101354.19;4985613;28;20034;-71
2023/07/17 01:38:30;;;;;;;3.33;2.25;;;;;;;16.86;96.48;101361.88;4987936;28;20072;-70
2023/07/17 01:40:55;;;;;;;6.70;2.47;;;;;;;16.85;96.54;101369.91;4973860;28;20072;-71
2023/07/17 01:43:21;;;;;;;9.23;3.05;;;;;;;16.78;96.60;101371.59;4988293;28;20049;-71
2023/07/17 01:45:48;;;;;;;6.68;2.30;;;;;;;16.74;96.83;101356.28;4991215;28;20033;-71
2023/07/17 01:48:14;;;;;;;5.05;2.10;;;;;;;16.73;97.11;101356.44;4988136;28;20424;-71
2023/07/17 01:50:46;;;;;;;5.63;2.40;;;;;;;16.71;97.66;101358.44;4985088;28;20069;-71
2023/07/17 01:53:12;;;;;;;7.87;2.33;;;;;;;16.72;97.05;101353.00;4988231;28;20772;-71
2023/07/17 01:55:38;;;;;;;6.13;2.47;;;;;;;16.67;96.99;101360.59;4989764;28;20788;-71
2023/07/17 01:58:04;;;;;;;5.00;2.65;;;;;;;16.67;97.18;101362.38;4990518;28;20022;-72
2023/07/17 02:00:29;;;;;;;5.85;2.20;;;;;;;16.60;97.54;101367.56;4973399;28;20034;-71
2023/07/17 02:02:55;;;;;;;11.40;3.15;;;;;;;16.56;98.09;101374.16;4974524;28;20038;-71
2023/07/17 02:05:21;;;;;;;6.60;2.35;;;;;;;16.47;99.12;101364.78;4992135;28;20048;-71
2023/07/17 02:07:46;;;;;;;9.35;2.45;;;;;;;16.48;99.06;101358.53;5006469;28;20048;-71
2023/07/17 02:10:12;;;;;;;5.30;2.50;;;;;;;16.50;98.23;101364.38;4993786;28;20034;-71
2023/07/17 02:12:38;;;;;;;6.28;2.97;;;;;;;16.50;98.94;101365.22;4987875;28;20546;-71
2023/07/17 02:15:05;;;;;;;7.90;2.60;;;;;;;16.52;99.08;101362.44;4972698;28;20036;-71
2023/07/17 02:17:33;;;;;;;7.90;2.58;;;;;;;16.51;98.17;101350.31;4990694;28;20034;-71
2023/07/17 02:19:59;;;;;;;4.47;2.22;;;;;;;16.44;98.84;101346.81;4982859;28;20574;-71
2023/07/17 02:22:24;;;;;;;3.75;2.38;;;;;;;16.41;99.04;101345.38;4972944;28;20037;-70
2023/07/17 02:24:50;;;;;;;8.75;2.60;;;;;;;16.39;99.60;101342.13;4993774;28;20052;-70
2023/07/17 02:27:16;;;;;;;4.40;2.15;;;;;;;16.38;99.75;101348.34;4976140;28;20042;-71
2023/07/17 02:29:41;;;;;;;5.00;2.20;;;;;;;16.42;99.72;101349.59;5006554;28;20038;-71
2023/07/17 02:32:07;;;;;;;4.57;1.90;;;;;;;16.46;99.44;101345.66;4986252;28;20041;-71
2023/07/17 02:34:32;;;;;;;4.75;2.20;;;;;;;16.37;99.17;101356.38;4990995;28;20476;-71
2023/07/17 02:36:58;;;;;;;4.75;2.00;;;;;;;16.40;98.95;101361.25;5006153;28;20033;-71
2023/07/17 02:39:23;;;;;;;4.32;2.10;;;;;;;16.32;99.08;101362.16;4991630;28;20037;-72
2023/07/17 02:41:49;;;;;;;4.70;2.58;;;;;;;16.28;99.23;101364.31;4976008;28;20038;-71
2023/07/17 02:44:15;;;;;;;7.03;2.45;;;;;;;16.25;99.26;101379.56;4992229;28;20034;-71
2023/07/17 02:46:41;;;;;;;3.40;2.03;;;;;;;16.29;98.86;101376.41;4993934;28;20496;-71
2023/07/17 02:49:09;;;;;;;7.00;2.13;;;;;;;16.33;97.86;101369.81;4993589;28;20032;-71
2023/07/17 02:51:34;;;;;;;5.82;2.08;;;;;;;16.28;96.88;101374.78;4988704;28;20547;-70
2023/07/17 02:54:00;;;;;;;4.80;1.80;;;;;;;16.26;97.69;101381.19;4974147;28;20037;-71
2023/07/17 02:56:25;;;;;;;3.55;2.00;;;;;;;16.17;97.83;101377.84;4973614;28;20150;-71
2023/07/17 02:58:54;;;;;;;5.55;2.13;;;;;;;16.17;97.46;101377.03;4991787;28;20034;-71
2023/07/17 03:01:20;;;;;;;5.90;2.30;;;;;;;16.13;97.50;101385.22;4983889;28;20070;-71
2023/07/17 03:03:46;;;;;;;7.10;2.10;;;;;;;16.12;97.86;101377.56;4975646;28;20114;-70
2023/07/17 03:06:12;;;;;;;4.93;2.17;;;;;;;16.06;98.83;101383.50;4987335;28;20037;-71
2023/07/17 03:08:37;;;;;;;5.45;2.42;;;;;;;16.00;99.26;101386.84;5003697;28;20639;-71
2023/07/17 03:11:06;;;;;;;5.85;1.98;;;;;;;15.98;99.24;101389.63;4997919;28;20487;-71
2023/07/17 03:13:32;;;;;;;5.63;2.28;;;;;;;15.96;99.66;101387.19;4993937;28;20692;-71
2023/07/17 03:16:00;;;;;;;4.68;2.30;;;;;;;15.93;99.07;101391.94;4990233;28;20046;-71
2023/07/17 03:18:26;;;;;;;6.93;1.80;;;;;;;15.88;99.64;101395.09;5007643;28;20041;-71
2023/07/17 03:20:54;;;;;;;6.57;1.98;;;;;;;15.87;99.70;101397.88;4973702;28;20666;-71
2023/07/17 03:23:20;;;;;;;5.00;1.88;;;;;;;15.87;99.12;101396.09;5004987;28;20056;-70
2023/07/17 03:25:45;;;;;;;5.60;2.00;;;;;;;15.83;99.65;101399.25;4991605;28;20054;-72
2023/07/17 03:28:11;;;;;;;7.05;2.10;;;;;;;15.87;99.14;101403.13;4988289;28;20038;-71
2023/07/17 03:30:36;;;;;;;2.85;2.00;;;;;;;15.87;99.68;101403.94;4988141;28;20033;-72
2023/07/17 03:33:03;;;;;;;4.55;2.28;;;;;;;15.82;99.43;101401.03;5003986;28;20025;-71
2023/07/17 03:35:29;;;;;;;4.53;2.10;;;;;;;15.81;99.61;101406.44;4971395;28;22138;-71
2023/07/17 03:37:55;;;;;;;4.05;2.25;;;;;;;15.81;99.67;101409.88;4991807;28;20057;-71
2023/07/17 03:40:21;;;;;;;5.95;2.35;;;;;;;15.75;98.95;101402.72;4989721;28;20041;-71
2023/07/17 03:42:46;;;;;;;5.38;2.45;;;;;;;15.73;99.06;101413.38;4978965;28;20030;-71
2023/07/17 03:45:13;;;;;;;5.47;2.22;;;;;;;15.71;99.46;101417.13;4992030;28;20117;-71
2023/07/17 03:47:39;;;;;;;5.50;2.10;;;;;;;15.71;99.46;101409.28;4991627;28;20030;-71
2023/07/17 03:50:05;;;;;;;6.05;2.13;;;;;;;15.71;99.55;101407.47;4988751;28;20816;-71
2023/07/17 03:52:31;;;;;;;4.68;2.35;;;;;;;15.72;99.56;101408.28;4991963;28;20041;-71
2023/07/17 03:54:56;;;;;;;5.68;2.40;;;;;;;15.71;99.55;101417.13;4991431;28;20026;-71
2023/07/17 03:57:22;;;;;;;5.57;2.30;;;;;;;15.69;99.33;101417.28;4970338;28;20042;-71
2023/07/17 03:59:50;;;;;;;5.25;2.28;;;;;;;15.71;98.90;101420.53;4973430;28;20037;-71
2023/07/17 04:02:18;;;;;;;5.47;2.45;;;;;;;15.68;99.11;101420.88;4987876;28;20038;-70
2023/07/17 04:04:43;;;;;;;8.68;3.28;;;;;;;15.59;100.00;101416.69;4990963;28;20032;-71
2023/07/17 04:07:09;;;;;;;6.18;2.33;;;;;;;15.52;100.00;101428.81;5006685;28;20041;-70
2023/07/17 04:09:35;;;;;;;9.05;2.63;;;;;;;15.54;100.00;101427.69;4971916;28;20048;-71
2023/07/17 04:12:03;;;;;;;8.43;3.33;;;;;;;15.48;100.00;101427.53;4973087;28;20034;-71
2023/07/17 04:14:33;;;;;;;4.35;2.40;;;;;;;15.50;100.00;101429.03;4992757;28;20038;-71
2023/07/17 04:17:00;;;;;;;8.77;2.67;;;;;;;15.48;100.00;101428.38;4993934;28;20092;-71
2023/07/17 04:19:29;;;;;;;9.43;3.28;;;;;;;15.54;100.00;101426.88;4977296;28;20030;-71
2023/07/17 04:21:55;;;;;;;5.13;2.65;;;;;;;15.52;100.00;101432.28;4975324;28;20045;-71
2023/07/17 04:24:24;;;;;;;3.85;2.20;;;;;;;15.55;100.00;101431.91;4995226;28;20786;-71
2023/07/17 04:26:52;;;;;;;7.78;2.40;;;;;;;15.57;100.00;101435.16;4990219;28;20407;-71
2023/07/17 04:29:21;;;;;;;3.67;1.88;;;;;;;15.59;100.00;101437.59;4989563;28;20053;-71
2023/07/17 04:31:48;;;;;;;4.30;2.65;;;;;;;15.62;100.00;101442.50;4990389;28;20040;-70
2023/07/17 04:34:15;;;;;;;8.75;2.53;;;;;;;15.63;99.45;101438.88;5008227;28;20029;-71
2023/07/17 04:36:41;;;;;;;4.38;2.17;;;;;;;15.62;100.00;101445.09;4996210;28;20094;-71
2023/07/17 04:39:06;;;;;;;5.75;2.60;;;;;;;15.66;100.00;101448.19;4990833;28;20037;-70
2023/07/17 04:41:33;;;;;;;8.20;3.30;;;;;;;15.68;99.64;101447.00;4995781;28;20045;-71
2023/07/17 04:43:59;;;;;;;9.80;3.17;;;;;;;15.65;100.00;101451.78;4981985;28;20033;-71
2023/07/17 04:46:25;;;;;;;7.68;2.63;;;;;;;15.68;99.95;101457.47;4991987;28;20026;-71
2023/07/17 04:48:50;;;;;;;8.70;2.63;;;;;;;15.69;99.89;101458.28;4992692;28;20493;-70
2023/07/17 04:51:16;;;;;;;5.93;2.33;;;;;;;15.64;99.98;101461.44;4977392;28;20054;-71
2023/07/17 04:53:41;;;;;;;8.15;3.22;;;;;;;15.65;100.00;101457.84;5003258;28;20014;-71
2023/07/17 04:56:07;;;;;;;15.98;3.08;;;;;;;15.71;99.79;101454.53;4988520;28;20489;-70
2023/07/17 04:58:33;;;;;;;8.18;3.45;;;;;;;15.73;99.78;101462.19;4993882;28;20026;-71
2023/07/17 05:01:06;;;;;;;7.30;2.25;;;;;;;15.69;99.53;101466.13;4989354;28;20030;-70
2023/07/17 05:03:32;;;;;;;8.00;3.00;;;;;;;15.72;98.94;101469.22;4974171;28;20034;-70
2023/07/17 05:05:59;;;;;;;7.90;2.67;;;;;;;15.71;99.27;101466.78;4974935;28;20042;-70
2023/07/17 05:08:25;;;;;;;7.57;2.47;;;;;;;15.84;98.15;101474.06;4990135;28;20030;-70
2023/07/17 05:10:59;;;;;;;6.22;2.80;;;;;;;15.92;98.41;101469.59;4989223;28;20033;-70
2023/07/17 05:13:29;;;;;;;7.72;2.63;;;;;;;15.95;98.12;101471.88;4987117;28;20967;-70
2023/07/17 05:15:56;;;;;;;7.25;2.65;;;;;;;16.00;98.27;101476.56;4988593;28;20050;-71
2023/07/17 05:18:22;;;;;;;12.40;3.47;;;;;;;16.05;96.94;101482.09;4983574;28;20037;-70
2023/07/17 05:20:49;;;;;;;8.38;3.08;;;;;;;16.06;96.66;101478.47;4970699;28;20046;-70
2023/07/17 05:23:15;;;;;;;9.43;2.90;;;;;;;16.14;96.06;101478.44;4991654;28;20018;-70
2023/07/17 05:25:50;;;;;;;7.90;2.95;;;;;;;16.24;95.58;101480.78;4987100;28;20551;-70
2023/07/17 05:28:16;;;;;;;6.05;2.55;;;;;;;16.30;95.65;101494.97;4975564;28;20060;-70
2023/07/17 05:30:42;;;;;;;10.23;3.72;;;;;;;16.42;94.09;101490.13;4989215;28;20496;-70
2023/07/17 05:33:07;;;;;;;10.15;3.67;;;;;;;16.34;93.52;101493.63;4992313;28;20025;-69
2023/07/17 05:35:33;;;;;;;6.63;2.70;;;;;;;16.41;94.55;101491.94;4975790;28;20089;-69
2023/07/17 05:38:00;;;;;;;8.07;3.10;;;;;;;16.52;94.07;101493.31;4973083;28;20041;-71
2023/07/17 05:40:25;;;;;;;7.38;3.00;;;;;;;16.58;93.86;101497.81;4996100;28;20576;-71
2023/07/17 05:42:51;;;;;;;8.52;3.05;;;;;;;16.63;93.38;101498.13;4993589;28;20093;-69
2023/07/17 05:45:17;;;;;;;10.18;2.88;;;;;;;16.76;91.62;101494.84;4974127;28;21284;-70
2023/07/17 05:47:43;;;;;;;7.22;2.55;;;;;;;16.78;91.08;101497.28;4989746;28;20064;-70
2023/07/17 05:50:10;;;;;;;7.60;2.97;;;;;;;16.80;90.15;101500.53;5011652;28;20041;-70
2023/07/17 05:52:35;;;;;;;5.40;2.80;;;;;;;16.92;90.21;101507.00;4970822;28;20034;-69
2023/07/17 05:55:01;;;;;;;6.88;2.90;;;;;;;17.15;89.37;101512.13;4992374;28;20056;-70
2023/07/17 05:57:28;;;;;;;10.20;3.28;;;;;;;17.23;88.40;101500.75;4991699;28;20041;-70
2023/07/17 05:59:54;;;;;;;6.97;3.13;;;;;;;17.38;87.41;101511.19;4995630;28;20030;-69
2023/07/17 06:02:20;;;;;;;9.88;2.58;;;;;;;17.56;87.68;101508.19;4992103;28;20049;-69
2023/07/17 06:04:45;;;;;;;5.88;2.38;;;;;;;17.68;85.31;101512.75;5008426;28;20470;-69
2023/07/17 06:07:13;;;;;;;10.15;2.85;;;;;;;17.76;84.97;101511.00;4989175;28;20050;-70
2023/07/17 06:09:39;;;;;;;14.57;2.90;;;;;;;17.92;84.77;101510.00;4999930;28;20038;-69
2023/07/17 06:12:05;;;;;;;7.78;3.03;;;;;;;18.12;83.67;101511.00;4984694;28;20594;-69
2023/07/17 06:14:31;;;;;;;9.23;2.63;;;;;;;18.25;82.50;101513.75;4982929;28;20038;-69
2023/07/17 06:16:56;;;;;;;14.15;2.80;;;;;;;18.34;83.48;101511.75;5003996;28;20051;-70
2023/07/17 06:19:22;;;;;;;11.73;3.55;;;;;;;18.50;80.74;101515.94;4989138;28;20034;-69
2023/07/17 06:21:47;;;;;;;7.18;2.25;;;;;;;18.67;80.22;101526.97;5004765;28;20038;-69
2023/07/17 06:24:13;;;;;;;8.20;2.45;;;;;;;18.71;80.34;101528.19;5004670;28;20065;-69
2023/07/17 06:26:38;;;;;;;10.80;3.33;;;;;;;18.76;79.83;101536.31;4974542;28;20703;-69
2023/07/17 06:29:05;;;;;;;11.30;2.55;;;;;;;18.94;77.62;101529.78;5004005;28;20045;-70
2023/07/17 06:31:31;;;;;;;12.57;3.20;;;;;;;19.08;77.08;101526.22;4989742;28;20054;-69
2023/07/17 06:33:57;;;;;;;9.48;2.85;;;;;;;19.37;76.26;101526.97;4988589;28;20037;-69
2023/07/17 06:36:22;;;;;;;14.95;4.40;;;;;;;19.58;75.88;101532.06;4986619;28;20045;-69
2023/07/17 06:38:48;;;;;;;12.10;3.63;;;;;;;19.62;74.53;101532.50;4988553;28;20411;-69
2023/07/17 06:41:14;;;;;;;5.55;2.25;;;;;;;19.84;73.99;101534.00;4986343;28;20420;-70
2023/07/17 06:43:40;;;;;;;7.47;2.42;;;;;;;19.97;73.17;101540.31;5006517;28;20034;-69
2023/07/17 06:46:05;;;;;;;8.38;2.45;;;;;;;20.13;72.46;101547.00;5002355;28;20697;-69
2023/07/17 06:48:31;;;;;;;8.32;2.80;;;;;;;20.01;71.95;101544.16;4986486;28;20038;-69
2023/07/17 06:50:56;;;;;;;8.30;3.42;;;;;;;20.23;70.46;101534.25;4990536;28;20050;-69
2023/07/17 06:53:22;;;;;;;6.53;2.75;;;;;;;20.53;71.50;101539.91;4988144;28;20048;-69
2023/07/17 06:55:55;;;;;;;10.35;4.00;;;;;;;20.58;69.84;101540.09;4992653;28;20014;-69
2023/07/17 06:58:20;;;;;;;8.13;2.75;;;;;;;20.87;69.71;101542.50;5007525;28;20022;-69
2023/07/17 07:00:46;;;;;;;13.80;3.25;;;;;;;21.11;68.17;101543.66;5003431;28;20083;-71
2023/07/17 07:03:11;;;;;;;9.13;2.92;;;;;;;21.16;66.35;101541.22;5006990;28;20049;-69
2023/07/17 07:05:37;;;;;;;13.73;4.20;;;;;;;21.39;65.32;101553.91;5003169;28;20034;-70
2023/07/17 07:08:03;;;;;;;9.15;3.40;;;;;;;21.67;64.51;101556.22;4972524;28;20041;-70
2023/07/17 07:10:28;;;;;;;8.55;3.38;;;;;;;21.62;65.70;101556.03;4987814;28;20042;-69
2023/07/17 07:12:54;;;;;;;8.15;3.47;;;;;;;21.65;62.15;101541.63;4991079;28;20464;-69
2023/07/17 07:15:19;;;;;;;13.07;5.00;;;;;;;21.55;61.84;101560.56;4988360;28;20037;-70
2023/07/17 07:17:45;;;;;;;7.00;3.55;;;;;;;21.99;61.16;101550.16;5003425;28;20033;-69
2023/07/17 07:20:11;;;;;;;6.20;3.72;;;;;;;22.32;60.49;101556.03;4973623;28;20034;-71
2023/07/17 07:22:36;;;;;;;11.85;4.95;;;;;;;22.23;60.58;101557.28;5000332;28;20041;-69
2023/07/17 07:25:02;;;;;;;10.23;3.90;;;;;;;22.19;59.36;101564.03;4985988;28;20037;-69
2023/07/17 07:27:29;;;;;;;8.25;4.75;;;;;;;22.27;57.00;101561.16;5008271;28;20659;-70
2023/07/17 07:29:54;;;;;;;8.15;3.63;;;;;;;22.55;55.80;101565.97;4988565;28;20030;-69
2023/07/17 07:32:20;;;;;;;16.83;5.50;;;;;;;22.47;56.02;101566.28;4988898;28;20554;-71
2023/07/17 07:34:45;;;;;;;13.88;4.88;;;;;;;22.25;55.83;101576.41;4989074;28;20042;-69
2023/07/17 07:37:11;;;;;;;14.13;4.50;;;;;;;22.39;55.47;101576.28;5001808;28;20491;-70
2023/07/17 07:39:36;;;;;;;11.90;4.47;;;;;;;22.69;54.49;101569.31;5002234;28;20038;-71
2023/07/17 07:42:02;;;;;;;13.35;4.70;;;;;;;22.84;53.44;101570.81;4962015;28;20046;-70
2023/07/17 07:44:27;;;;;;;11.18;4.57;;;;;;;23.21;52.47;101568.19;4987738;28;20037;-69
2023/07/17 07:46:52;;;;;;;9.57;4.30;;;;;;;23.76;52.41;101565.44;4982355;28;20037;-69
2023/07/17 07:49:18;;;;;;;10.93;4.60;;;;;;;23.79;51.34;101569.50;4986279;28;20030;-70
2023/07/17 07:51:43;;;;;;;10.00;4.80;;;;;;;23.64;50.88;101569.88;4985439;28;20515;-71
2023/07/17 07:54:09;;;;;;;13.15;4.13;;;;;;;24.09;49.56;101572.94;4986607;28;20038;-70
2023/07/17 07:56:34;;;;;;;8.90;3.60;;;;;;;24.10;49.46;101569.22;5001053;28;20624;-69
2023/07/17 07:59:00;;;;;;;9.75;3.35;;;;;;;24.15;48.75;101565.91;4970002;28;20432;-69
2023/07/17 08:01:25;;;;;;;6.10;3.13;;;;;;;24.23;48.21;101568.22;5002523;28;20057;-70
2023/07/17 08:03:51;;;;;;;5.38;3.28;;;;;;;24.34;49.71;101569.28;4985874;28;20516;-69
2023/07/17 08:06:16;;;;;;;6.88;3.63;;;;;;;24.57;48.58;101581.75;5003958;28;20483;-70
2023/07/17 08:08:42;;;;;;;7.93;3.65;;;;;;;24.17;47.77;101579.72;4986993;28;20040;-70
2023/07/17 08:11:07;;;;;;;9.43;2.97;;;;;;;24.51;47.69;101577.34;5001706;28;20042;-69
2023/07/17 08:13:33;;;;;;;13.07;3.80;;;;;;;24.03;48.15;101588.91;5000613;28;20036;-69
2023/07/17 08:15:59;;;;;;;8.27;3.63;;;;;;;24.41;47.30;101582.41;5003226;28;20049;-69
2023/07/17 08:18:24;;;;;;;8.05;3.35;;;;;;;24.38;47.21;101581.03;4987137;28;20030;-69
2023/07/17 08:20:50;;;;;;;25.75;10.65;;;;;;;24.32;46.92;101581.94;4999613;28;20408;-69
2023/07/17 08:23:25;;;;;;;13.52;3.42;;;;;;;24.65;47.03;101588.53;4984824;28;20421;-69
2023/07/17 08:25:51;;;;;;;9.75;3.15;;;;;;;24.92;46.47;101575.63;5001265;28;20038;-70
2023/07/17 08:28:16;;;;;;;7.25;3.97;;;;;;;25.05;45.49;101582.50;5003077;28;20033;-69
2023/07/17 08:30:42;;;;;;;8.45;3.25;;;;;;;24.80;46.83;101586.22;4987309;28;20033;-70
2023/07/17 08:33:07;;;;;;;7.65;3.83;;;;;;;24.96;47.30;101584.72;4984334;28;20131;-70
2023/07/17 08:35:33;;;;;;;7.97;3.17;;;;;;;24.85;47.78;101581.03;4987346;28;20034;-70
2023/07/17 08:37:58;;;;;;;9.15;3.78;;;;;;;24.82;47.42;101584.16;4987644;28;20030;-69
2023/07/17 08:40:26;;;;;;;7.90;3.20;;;;;;;25.06;47.26;101586.78;5001518;28;20412;-69
2023/07/17 08:42:52;;;;;;;5.57;3.03;;;;;;;24.79;45.14;101578.50;5001202;28;20038;-70
2023/07/17 08:45:22;;;;;;;21.77;3.60;;;;;;;24.72;45.67;101589.25;4988215;28;20046;-69
2023/07/17 08:47:51;;;;;;;11.50;3.90;;;;;;;24.89;46.77;101596.50;4988050;28;20038;-70
2023/07/17 08:50:18;;;;;;;8.23;3.22;;;;;;;24.99;46.10;101594.84;5006178;28;20045;-70
2023/07/17 08:52:45;;;;;;;9.73;2.85;;;;;;;25.14;44.64;101598.88;4999063;28;20041;-69
2023/07/17 08:55:11;;;;;;;10.75;5.95;;;;;;;25.50;44.41;101594.28;4988098;28;20045;-71
2023/07/17 08:57:38;;;;;;;5.97;3.00;;;;;;;25.55;43.25;101591.75;4986396;28;20096;-69
2023/07/17 09:00:05;;;;;;;8.38;3.03;;;;;;;25.13;44.05;101586.63;4986176;28;20034;-71
2023/07/17 09:02:32;;;;;;;10.98;2.88;;;;;;;25.44;45.45;101582.78;4986017;28;20050;-69
2023/07/17 09:04:58;;;;;;;5.07;2.58;;;;;;;25.48;43.00;101591.88;5006469;28;20037;-71
2023/07/17 09:07:23;;;;;;;7.55;3.00;;;;;;;24.94;43.59;101592.09;5010701;28;20053;-69
2023/07/17 09:10:16;;;;;;;4.10;2.25;;;;;;;25.35;43.04;101590.28;4987710;28;20037;-70
2023/07/17 09:12:42;;;;;;;;;;;;;;;25.17;43.62;101596.56;4988484;28;20054;-70
2023/07/17 09:15:09;;;;;;;9.55;2.95;;;;;;;25.75;42.68;101589.47;5005379;28;19944;-72
2023/07/17 09:17:34;;;;;;;5.20;2.97;;;;;;;25.51;42.83;101598.56;5007102;28;20049;-71
2023/07/17 09:20:10;;;;;;;7.35;2.50;;;;;;;25.71;42.91;101603.44;4991035;28;20056;-70
2023/07/17 09:22:37;;;;;;;8.50;3.03;;;;;;;25.44;43.21;101602.16;4984900;28;20046;-71
2023/07/17 09:25:03;;;;;;;10.55;3.15;;;;;;;25.23;43.69;101606.25;5006580;28;20077;-71
2023/07/17 09:27:28;;;;;;;5.65;2.60;;;;;;;25.14;42.78;101604.97;5008650;28;20052;-70
2023/07/17 09:29:54;;;;;;;4.40;2.58;;;;;;;25.34;42.34;101603.81;4984416;28;20038;-69
2023/07/17 09:32:21;;;;;;;6.25;2.67;;;;;;;25.57;43.02;101602.94;4993814;28;20065;-71
2023/07/17 09:35:04;;;;;;;7.18;2.50;;;;;;;25.69;41.28;101610.84;4978196;28;20654;-70
2023/07/17 09:37:33;;;;;;;10.93;3.05;;;;;;;25.18;43.33;101605.31;4993516;28;20050;-70
2023/07/17 09:40:00;;;;;;;7.95;3.00;;;;;;;24.79;42.78;101600.53;5011684;28;20514;-70
2023/07/17 09:42:26;;;;;;;7.78;3.13;;;;;;;25.12;42.54;101611.56;4988470;28;20041;-71
2023/07/17 09:44:53;;;;;;;8.15;3.00;;;;;;;24.93;43.60;101605.59;4996621;28;20049;-70
2023/07/17 09:47:19;;;;;;;8.75;2.80;;;;;;;24.83;43.58;101603.53;5006760;28;20061;-70
2023/07/17 09:49:47;;;;;;;7.35;3.10;;;;;;;24.89;43.10;101607.91;4992073;28;20044;-70
2023/07/17 09:52:14;;;;;;;8.00;3.05;;;;;;;25.10;44.16;101605.69;5009747;28;20480;-70
2023/07/17 09:54:42;;;;;;;7.85;3.58;;;;;;;25.06;45.14;101614.09;5007121;28;20106;-70
2023/07/17 09:57:09;;;;;;;7.18;3.20;;;;;;;25.44;44.27;101602.16;5008705;28;20925;-69
2023/07/17 09:59:40;;;;;;;6.03;2.85;;;;;;;26.08;44.44;101606.50;4990681;28;20120;-69
2023/07/17 10:02:16;;;;;;;8.02;2.97;;;;;;;26.35;42.66;101612.00;4993497;28;20078;-70
2023/07/17 10:04:45;;;;;;;6.13;3.22;;;;;;;26.24;42.09;101604.91;5006959;28;20104;-70
2023/07/17 10:07:14;;;;;;;8.68;3.58;;;;;;;25.89;43.80;101608.56;5007197;28;20115;-70
2023/07/17 10:09:43;;;;;;;9.52;3.80;;;;;;;25.98;42.62;101603.69;5004580;28;20401;-70
2023/07/17 10:12:10;;;;;;;10.60;4.25;;;;;;;26.14;42.17;101607.41;4987820;28;20041;-69
2023/07/17 10:14:36;;;;;;;11.60;4.05;;;;;;;25.71;43.10;101606.09;5008221;28;20034;-70
2023/07/17 10:17:02;;;;;;;8.40;3.50;;;;;;;25.70;43.08;101605.28;4976206;28;20046;-70
2023/07/17 10:19:44;;;;;;;7.95;3.53;;;;;;;26.26;42.75;101607.31;4987732;28;20596;-70
2023/07/17 10:22:14;;;;;;;9.35;3.70;;;;;;;25.91;42.47;101611.78;4990366;28;20050;-69
2023/07/17 10:24:42;;;;;;;7.47;3.97;;;;;;;25.58;44.22;101617.81;4988903;28;20036;-69
2023/07/17 10:27:08;;;;;;;10.55;4.20;;;;;;;25.13;44.18;101615.81;4988941;28;20485;-70
2023/07/17 10:29:44;;;;;;;10.63;3.80;;;;;;;24.95;43.50;101611.47;5007043;28;20030;-69
2023/07/17 10:32:13;;;;;;;11.80;3.83;;;;;;;24.76;44.99;101616.09;4990904;28;20042;-70
2023/07/17 10:34:51;;;;;;;8.43;3.80;;;;;;;24.44;45.72;101624.34;4970950;28;20128;-70
2023/07/17 10:37:38;;;;;;;9.80;4.18;;;;;;;24.13;45.98;101620.97;4987015;28;20489;-70
2023/07/17 10:40:24;;;;;;;11.40;4.07;;;;;;;24.15;46.50;101626.84;5007518;28;20095;-70
2023/07/17 10:42:49;;;;;;;8.32;4.75;;;;;;;24.00;47.08;101637.06;4991321;28;20037;-70
2023/07/17 10:45:16;;;;;;;8.13;4.60;;;;;;;23.87;46.05;101630.09;4993957;28;20083;-69
2023/07/17 10:47:41;;;;;;;13.68;4.50;;;;;;;23.84;47.59;101625.25;5002124;28;20054;-69
2023/07/17 10:50:07;;;;;;;11.00;5.15;;;;;;;24.22;47.42;101624.91;4993043;28;20038;-70
2023/07/17 10:52:35;;;;;;;11.23;5.63;;;;;;;24.16;47.20;101625.78;4989250;28;20054;-70
2023/07/17 10:55:05;;;;;;;7.93;4.05;;;;;;;24.33;47.12;101622.50;4992605;28;20407;-71
2023/07/17 10:57:31;;;;;;;11.68;4.50;;;;;;;24.29;48.21;101620.28;4991489;28;20042;-69
2023/07/17 10:59:58;;;;;;;9.68;4.28;;;;;;;24.35;47.76;101629.16;5006850;28;20037;-69
2023/07/17 11:02:26;;;;;;;16.45;5.00;;;;;;;24.23;47.82;101628.34;4973910;28;20117;-70
2023/07/17 11:04:57;;;;;;;10.93;4.75;;;;;;;24.09;46.09;101631.19;4992732;28;20455;-70
2023/07/17 11:07:24;;;;;;;11.40;4.20;;;;;;;23.91;47.16;101623.31;5005812;28;20060;-70
2023/07/17 11:09:49;;;;;;;9.30;4.72;;;;;;;23.61;47.43;101620.63;4989652;28;20053;-71
2023/07/17 11:12:17;;;;;;;7.88;4.38;;;;;;;23.60;47.02;101626.94;4989558;28;20042;-71
2023/07/17 11:14:42;;;;;;;8.13;3.78;;;;;;;23.46;47.15;101634.25;4991021;28;20278;-70
2023/07/17 11:17:12;;;;;;;9.25;4.05;;;;;;;23.04;48.22;101628.81;4988413;28;20121;-69
2023/07/17 11:19:37;;;;;;;8.85;4.22;;;;;;;23.03;49.09;101630.63;4987227;28;20353;-70
2023/07/17 11:22:03;;;;;;;7.35;3.75;;;;;;;23.25;49.17;101632.84;5000176;28;20047;-69